NCAR-RAP Real-Time Weather Data

Output produced by METARs form (10 April 2020  06:05 UTC)
found at http://weather.rap.ucar.edu/surface/
 
KNYC 100551Z AUTO VRB06G14KT 10SM CLR 06/M01 A2936 RMK AO2 RAB0455E03 SLP935 P0000 60000 T00561006 10094 20056 58009